CST,Max TemperatureF,Mean TemperatureF,Min TemperatureF,Max Dew PointF,MeanDew PointF,Min DewpointF,Max Humidity, Mean Humidity, Min Humidity, Max Sea Level PressureIn, Mean Sea Level PressureIn, Min Sea Level PressureIn, Max VisibilityMiles, Mean VisibilityMiles, Min VisibilityMiles, Max Wind SpeedMPH, Mean Wind SpeedMPH, Max Gust SpeedMPH,PrecipitationIn, CloudCover, Events, WindDirDegrees
2012-11-1,44,34,24,34,25,19,86,66,42,30.06,29.99,29.92,10,10,1,16,6,22,0.00,4,,325
2012-11-2,37,27,17,25,22,16,93,73,52,30.17,30.13,30.06,10,10,10,9,3,,0.00,2,,19
2012-11-3,37,34,30,27,25,21,80,68,60,30.23,30.20,30.16,10,10,10,6,3,,0.00,8,,52
2012-11-4,44,36,28,28,27,25,86,66,53,30.23,30.19,30.14,10,10,10,8,3,,0.00,8,,50
2012-11-5,41,36,32,37,30,25,93,79,65,30.20,30.12,29.91,10,9,2,10,6,,0.01,8,,93
2012-11-6,42,38,33,37,34,30,100,87,76,29.98,29.83,29.73,10,8,2,16,9,25,0.29,8,Rain-Snow,267
2012-11-7,46,40,35,36,32,28,93,76,50,30.10,30.05,29.98,10,10,10,8,3,,0.00,6,,193
2012-11-8,51,42,33,36,32,28,93,74,54,30.04,29.97,29.91,10,10,7,14,7,20,0.00,0,,172
2012-11-9,44,38,33,37,35,30,93,84,71,30.07,30.02,29.94,10,9,7,15,8,22,0.00,5,,40
2012-11-10,51,46,41,48,43,36,100,91,81,29.94,29.65,29.44,10,3,1,15,9,21,0.19,8,Rain-Thunderstorm,76
2012-11-11,51,35,19,50,25,10,94,81,68,29.89,29.74,29.48,10,9,5,18,11,24,0.01,8,Snow,250
2012-11-12,24,20,15,16,13,9,93,74,59,30.25,30.03,29.88,10,9,2,18,10,25,0.00,7,Snow,250
2012-11-13,42,27,12,27,18,10,93,67,39,30.32,30.28,30.25,10,10,10,13,4,10,0.00,2,,157
2012-11-14,51,40,28,28,28,25,93,66,38,30.25,30.20,30.12,10,10,10,9,3,,0.00,3,,154
2012-11-15,48,32,17,32,22,10,100,65,29,30.46,30.26,30.10,10,9,3,14,3,18,0.00,2,,312
2012-11-16,41,26,12,30,14,9,93,63,29,30.48,30.41,30.29,10,10,10,10,2,,0.00,0,,124
2012-11-17,57,44,30,36,32,23,81,60,38,30.30,30.21,30.15,10,10,7,16,9,24,0.00,3,,147
2012-11-18,57,50,42,34,32,28,61,52,38,30.16,30.09,30.04,10,10,10,20,11,22,0.00,2,,145
2012-11-19,57,44,32,37,35,30,93,65,48,30.08,30.03,30.00,10,10,7,9,6,,0.00,3,,154
2012-11-20,51,38,24,34,29,21,100,77,43,30.17,30.11,30.01,10,7,0,9,3,,0.00,1,Fog,218
2012-11-21,57,46,37,41,35,30,81,64,47,30.00,29.85,29.65,10,10,7,13,6,18,0.00,0,,152
2012-11-22,57,39,21,43,33,16,93,74,55,29.95,29.72,29.57,10,8,1,24,12,34,0.00,4,Snow,242
2012-11-23,24,16,8,16,11,5,92,74,59,30.36,30.24,29.96,10,9,2,24,16,33,0.00,6,Snow,290
2012-11-24,26,14,1,19,9,-2,92,77,68,30.33,30.06,29.78,10,10,10,12,3,,0.00,4,,142
2012-11-25,28,22,15,21,19,9,80,73,59,30.16,29.95,29.79,10,10,10,18,8,28,0.00,7,Snow,283
2012-11-26,17,10,3,9,4,0,85,73,58,30.40,30.32,30.17,10,10,10,12,8,16,0.00,2,Snow,273
2012-11-27,35,24,12,23,15,7,93,73,60,30.29,30.16,30.07,10,10,4,14,6,18,0.00,3,,216
2012-11-28,33,27,21,23,20,16,86,75,60,30.30,30.21,30.07,10,10,10,12,7,18,0.00,4,,208
2012-11-29,35,26,17,25,22,14,93,82,65,30.14,30.09,30.04,10,8,4,15,5,22,0.00,2,,38
2012-11-30,33,28,24,30,25,21,93,83,80,30.18,30.12,30.04,10,8,3,12,7,17,0.00,8,,81